Time;durP1;ratioP1;P1;durP2;ratioP2;P2;SDS_P1;SDS_P2;PMS_P1;PMS_P2;Temp;Humidity;BMP_temperature;BMP_pressure;BME280_temperature;BME280_humidity;BME280_pressure;Samples;Min_cycle;Max_cycle;Signal;HPM_P1;HPM_P2
2022/07/18 00:01:28;;;;;;;11.48;6.32;;;;;;;;;;5089053;28;20051;-80
2022/07/18 00:03:54;;;;;;;8.65;6.05;;;;;;;;;;5076689;28;20573;-80
2022/07/18 00:06:19;;;;;;;13.35;7.65;;;;;;;;;;5078463;28;20021;-80
2022/07/18 00:08:45;;;;;;;10.90;7.15;;;;;;;;;;5076806;28;20090;-82
2022/07/18 00:11:10;;;;;;;8.63;6.93;;;;;;;;;;5084889;28;20056;-80
2022/07/18 00:13:36;;;;;;;11.68;6.13;;;;;;;;;;5097949;28;20119;-80
2022/07/18 00:16:01;;;;;;;11.15;5.95;;;;;;;;;;5097821;28;20036;-80
2022/07/18 00:18:27;;;;;;;11.75;6.22;;;;;;;;;;5098013;28;20036;-80
2022/07/18 00:20:52;;;;;;;8.65;6.53;;;;;;;;;;5073888;28;20051;-80
2022/07/18 00:23:17;;;;;;;9.20;6.40;;;;;;;;;;5096974;28;20124;-79
2022/07/18 00:25:43;;;;;;;13.27;6.57;;;;;;;;;;5073674;28;20021;-80
2022/07/18 00:28:11;;;;;;;9.85;6.10;;;;;;;;;;5050161;28;20037;-81
2022/07/18 00:30:37;;;;;;;9.43;6.47;;;;;;;;;;5097224;28;20032;-81
2022/07/18 00:33:03;;;;;;;9.75;6.47;;;;;;;;;;5082678;28;20044;-80
2022/07/18 00:35:28;;;;;;;10.80;6.85;;;;;;;;;;5082788;28;20043;-79
2022/07/18 00:37:54;;;;;;;13.45;6.50;;;;;;;;;;5083312;28;20036;-79
2022/07/18 00:40:19;;;;;;;12.00;6.63;;;;;;;;;;5094790;28;20020;-79
2022/07/18 00:42:45;;;;;;;9.30;6.38;;;;;;;;;;5094976;28;20444;-80
2022/07/18 00:45:10;;;;;;;9.63;6.55;;;;;;;;;;5083261;28;20024;-80
2022/07/18 00:47:36;;;;;;;9.27;6.75;;;;;;;;;;5096383;28;20443;-80
2022/07/18 00:50:03;;;;;;;8.55;6.55;;;;;;;;;;5094106;28;20499;-81
2022/07/18 00:52:29;;;;;;;12.88;6.53;;;;;;;;;;5075464;28;20060;-80
2022/07/18 00:54:54;;;;;;;9.68;6.40;;;;;;;;;;5095292;28;20156;-79
2022/07/18 00:57:20;;;;;;;7.80;6.38;;;;;;;;;;5096017;28;20032;-81
2022/07/18 01:02:29;;;;;;;11.00;6.78;;;;;;;;;;5081575;28;20040;-79
2022/07/18 01:04:55;;;;;;;10.57;7.18;;;;;;;;;;5094369;28;20078;-80
2022/07/18 01:07:20;;;;;;;10.27;6.97;;;;;;;;;;5090890;28;20043;-78
2022/07/18 01:09:45;;;;;;;9.23;6.55;;;;;;;;;;5084095;28;20016;-80
2022/07/18 01:12:11;;;;;;;9.95;6.40;;;;;;;;;;5091241;28;20583;-79
2022/07/18 01:14:36;;;;;;;7.93;6.50;;;;;;;;;;5093402;28;20122;-81
2022/07/18 01:17:02;;;;;;;10.93;6.80;;;;;;;;;;5089396;28;20035;-80
2022/07/18 01:19:27;;;;;;;9.45;6.63;;;;;;;;;;5082260;28;20364;-79
2022/07/18 01:21:53;;;;;;;11.77;6.78;;;;;;;;;;5097523;28;20036;-80
2022/07/18 01:24:18;;;;;;;9.25;6.65;;;;;;;;;;5093470;28;20031;-79
2022/07/18 01:26:44;;;;;;;9.85;6.10;;;;;;;;;;5090622;28;20115;-79
2022/07/18 01:29:09;;;;;;;9.95;7.20;;;;;;;;;;5074404;28;20048;-79
2022/07/18 01:31:35;;;;;;;9.95;6.88;;;;;;;;;;5072861;28;20074;-79
2022/07/18 01:34:00;;;;;;;9.82;7.05;;;;;;;;;;5073522;28;20105;-80
2022/07/18 01:36:26;;;;;;;8.55;6.90;;;;;;;;;;5074839;28;20423;-79
2022/07/18 01:38:51;;;;;;;16.23;8.27;;;;;;;;;;5094100;28;20081;-79
2022/07/18 01:41:17;;;;;;;10.05;7.97;;;;;;;;;;5093192;28;20115;-79
2022/07/18 01:43:42;;;;;;;11.00;8.23;;;;;;;;;;5094015;28;20107;-79
2022/07/18 01:46:08;;;;;;;11.98;8.38;;;;;;;;;;5079242;28;20033;-79
2022/07/18 01:48:36;;;;;;;23.80;8.07;;;;;;;;;;5093952;28;20016;-79
2022/07/18 01:51:01;;;;;;;16.48;7.75;;;;;;;;;;5081790;28;20040;-79
2022/07/18 01:53:27;;;;;;;21.42;8.02;;;;;;;;;;5094270;28;20032;-79
2022/07/18 01:55:53;;;;;;;27.98;7.53;;;;;;;;;;5077356;28;20039;-79
2022/07/18 01:58:18;;;;;;;20.38;7.88;;;;;;;;;;5055738;28;20024;-79
2022/07/18 02:00:44;;;;;;;31.52;7.30;;;;;;;;;;5086727;28;20114;-80
2022/07/18 02:03:09;;;;;;;30.05;7.20;;;;;;;;;;5086228;28;20025;-80
2022/07/18 02:05:35;;;;;;;47.65;6.82;;;;;;;;;;5087794;28;20148;-80
2022/07/18 02:08:00;;;;;;;58.47;7.57;;;;;;;;;;5094046;28;20077;-79
2022/07/18 02:10:26;;;;;;;84.68;7.63;;;;;;;;;;5091757;28;20048;-80
2022/07/18 02:12:51;;;;;;;37.10;8.57;;;;;;;;;;5087086;28;20085;-80
2022/07/18 02:15:17;;;;;;;51.17;8.50;;;;;;;;;;5069529;28;20036;-80
2022/07/18 02:17:42;;;;;;;17.35;9.10;;;;;;;;;;5093640;28;20060;-79
2022/07/18 02:20:08;;;;;;;22.10;8.35;;;;;;;;;;5082056;28;20020;-79
2022/07/18 02:22:34;;;;;;;36.65;9.05;;;;;;;;;;5093468;28;20044;-79
2022/07/18 02:24:59;;;;;;;92.57;10.65;;;;;;;;;;5093029;28;20067;-78
2022/07/18 02:27:25;;;;;;;82.20;10.15;;;;;;;;;;5088268;28;20099;-79
2022/07/18 02:29:51;;;;;;;206.32;12.95;;;;;;;;;;5074440;28;20032;-81
2022/07/18 02:32:16;;;;;;;167.05;12.45;;;;;;;;;;5077803;28;20584;-80
2022/07/18 02:34:42;;;;;;;121.57;10.15;;;;;;;;;;5087105;28;20074;-79
2022/07/18 02:37:07;;;;;;;180.13;12.10;;;;;;;;;;5086004;28;20435;-79
2022/07/18 02:39:33;;;;;;;40.55;9.15;;;;;;;;;;5093673;28;20044;-79
2022/07/18 02:41:58;;;;;;;54.72;10.55;;;;;;;;;;5073199;28;20048;-79
2022/07/18 02:44:24;;;;;;;16.90;8.40;;;;;;;;;;5069609;28;20107;-80
2022/07/18 02:46:49;;;;;;;103.05;10.63;;;;;;;;;;5093560;28;20066;-80
2022/07/18 02:49:27;;;;;;;16.63;8.82;;;;;;;;;;5074224;28;20037;-80
2022/07/18 02:51:56;;;;;;;10.32;8.02;;;;;;;;;;5081072;28;20093;-80
2022/07/18 02:54:22;;;;;;;11.85;8.57;;;;;;;;;;5091666;28;20024;-80
2022/07/18 02:56:47;;;;;;;10.70;8.80;;;;;;;;;;5092259;28;20069;-80
2022/07/18 02:59:13;;;;;;;10.30;8.18;;;;;;;;;;5080110;28;20028;-80
2022/07/18 03:01:38;;;;;;;10.18;8.18;;;;;;;;;;5083565;28;20038;-79
2022/07/18 03:04:04;;;;;;;10.50;7.97;;;;;;;;;;5057894;28;20052;-79
2022/07/18 03:06:29;;;;;;;9.15;7.10;;;;;;;;;;5057524;28;20078;-80
2022/07/18 03:08:55;;;;;;;9.25;7.05;;;;;;;;;;5057044;28;20046;-79
2022/07/18 03:11:20;;;;;;;9.80;6.85;;;;;;;;;;5079543;28;20048;-79
2022/07/18 03:13:46;;;;;;;8.93;6.70;;;;;;;;;;5073716;28;20036;-80
2022/07/18 03:16:11;;;;;;;9.65;7.30;;;;;;;;;;5071884;28;20052;-79
2022/07/18 03:18:36;;;;;;;8.48;6.78;;;;;;;;;;5058982;28;20032;-79
2022/07/18 03:21:02;;;;;;;8.48;6.65;;;;;;;;;;5086297;28;20036;-79
2022/07/18 03:23:27;;;;;;;7.80;6.40;;;;;;;;;;5099308;28;20066;-80
2022/07/18 03:25:53;;;;;;;8.07;6.43;;;;;;;;;;5068477;28;20107;-79
2022/07/18 03:28:18;;;;;;;7.80;6.60;;;;;;;;;;5063828;28;20032;-80
2022/07/18 03:30:44;;;;;;;8.27;6.75;;;;;;;;;;5089433;28;20500;-80
2022/07/18 03:33:09;;;;;;;9.90;7.35;;;;;;;;;;5061836;28;20063;-82
2022/07/18 03:35:35;;;;;;;17.92;13.73;;;;;;;;;;5086595;28;20475;-79
2022/07/18 03:38:00;;;;;;;19.35;16.65;;;;;;;;;;5059018;28;20468;-80
2022/07/18 03:40:26;;;;;;;20.23;18.10;;;;;;;;;;5082609;28;20111;-80
2022/07/18 03:42:51;;;;;;;21.25;18.33;;;;;;;;;;5062829;28;20453;-79
2022/07/18 03:45:17;;;;;;;15.45;13.63;;;;;;;;;;5070468;28;20032;-81
2022/07/18 03:47:42;;;;;;;15.50;12.35;;;;;;;;;;5080603;28;20020;-75
2022/07/18 03:50:08;;;;;;;9.35;7.95;;;;;;;;;;5077604;28;20067;-75
2022/07/18 03:52:33;;;;;;;8.45;6.30;;;;;;;;;;5082361;28;20115;-80
2022/07/18 03:55:01;;;;;;;10.13;5.28;;;;;;;;;;5078919;28;20039;-80
2022/07/18 03:57:27;;;;;;;8.55;5.35;;;;;;;;;;5085527;28;20024;-79
2022/07/18 03:59:52;;;;;;;9.63;4.78;;;;;;;;;;5078693;28;20612;-80
2022/07/18 04:02:18;;;;;;;8.27;4.70;;;;;;;;;;5075345;28;20052;-80
2022/07/18 04:04:43;;;;;;;9.90;4.93;;;;;;;;;;5074587;28;20047;-79
2022/07/18 04:07:09;;;;;;;6.65;4.53;;;;;;;;;;5083658;28;20031;-79
2022/07/18 04:09:34;;;;;;;10.05;4.70;;;;;;;;;;5093938;28;20077;-80
2022/07/18 04:11:59;;;;;;;8.70;4.25;;;;;;;;;;5095714;28;20143;-79
2022/07/18 04:14:25;;;;;;;7.20;4.25;;;;;;;;;;5077253;28;20036;-80
2022/07/18 04:16:50;;;;;;;6.63;4.30;;;;;;;;;;5086800;28;20056;-80
2022/07/18 04:19:17;;;;;;;9.05;3.88;;;;;;;;;;5091270;28;20086;-80
2022/07/18 04:21:42;;;;;;;7.68;3.97;;;;;;;;;;5083336;28;20406;-80
2022/07/18 04:24:08;;;;;;;7.45;3.60;;;;;;;;;;5074571;28;20070;-80
2022/07/18 04:26:33;;;;;;;5.55;3.10;;;;;;;;;;5074927;28;20028;-79
2022/07/18 04:28:59;;;;;;;6.40;3.15;;;;;;;;;;5081555;28;20394;-80
2022/07/18 04:31:24;;;;;;;6.93;3.10;;;;;;;;;;5093748;28;20036;-80
2022/07/18 04:33:50;;;;;;;6.50;3.10;;;;;;;;;;5090659;28;20033;-80
2022/07/18 04:36:15;;;;;;;6.30;2.83;;;;;;;;;;5088697;28;20054;-79
2022/07/18 04:38:41;;;;;;;7.43;2.60;;;;;;;;;;5092683;28;20407;-79
2022/07/18 04:41:07;;;;;;;4.63;2.65;;;;;;;;;;5093840;28;20027;-79
2022/07/18 04:43:32;;;;;;;4.63;2.83;;;;;;;;;;5075961;28;20032;-80
2022/07/18 04:45:58;;;;;;;4.78;2.67;;;;;;;;;;5077426;28;20020;-78
2022/07/18 04:48:23;;;;;;;4.95;2.30;;;;;;;;;;5076612;28;20024;-79
2022/07/18 04:50:49;;;;;;;4.97;2.85;;;;;;;;;;5093131;28;20032;-80
2022/07/18 04:53:14;;;;;;;5.28;3.30;;;;;;;;;;5094323;28;20042;-80
2022/07/18 04:55:40;;;;;;;4.72;3.30;;;;;;;;;;5094712;28;20031;-79
2022/07/18 04:58:05;;;;;;;7.82;3.28;;;;;;;;;;5088731;28;20082;-79
2022/07/18 05:00:31;;;;;;;4.70;2.67;;;;;;;;;;5074895;28;20495;-79
2022/07/18 05:02:56;;;;;;;6.15;3.13;;;;;;;;;;5074025;28;20111;-79
2022/07/18 05:05:22;;;;;;;4.28;3.03;;;;;;;;;;5073783;28;20107;-80
2022/07/18 05:07:48;;;;;;;5.63;2.50;;;;;;;;;;5073534;28;20039;-80
2022/07/18 05:10:13;;;;;;;9.70;3.80;;;;;;;;;;5057116;28;20063;-80
2022/07/18 05:12:40;;;;;;;7.15;3.35;;;;;;;;;;5073838;28;20025;-79
2022/07/18 05:15:06;;;;;;;7.78;3.53;;;;;;;;;;5074603;28;20165;-79
2022/07/18 05:17:31;;;;;;;7.35;2.85;;;;;;;;;;5057065;28;20028;-80
2022/07/18 05:19:57;;;;;;;6.25;2.65;;;;;;;;;;5073856;28;20116;-80
2022/07/18 05:22:22;;;;;;;7.95;2.95;;;;;;;;;;5074763;28;20028;-79
2022/07/18 05:24:48;;;;;;;5.97;2.53;;;;;;;;;;5073685;28;20036;-79
2022/07/18 05:27:13;;;;;;;6.15;3.20;;;;;;;;;;5073174;28;20032;-79
2022/07/18 05:29:38;;;;;;;5.20;2.88;;;;;;;;;;5075083;28;20475;-79
2022/07/18 05:32:04;;;;;;;3.83;2.60;;;;;;;;;;5087536;28;20039;-80
2022/07/18 05:34:30;;;;;;;4.65;2.40;;;;;;;;;;5074718;28;20137;-79
2022/07/18 05:36:55;;;;;;;3.63;2.08;;;;;;;;;;5074654;28;20044;-80
2022/07/18 05:39:21;;;;;;;3.85;2.05;;;;;;;;;;5073452;28;20028;-79
2022/07/18 05:41:46;;;;;;;4.22;2.20;;;;;;;;;;5072604;28;20090;-80
2022/07/18 05:44:11;;;;;;;7.65;2.10;;;;;;;;;;5072604;28;20032;-80
2022/07/18 05:46:37;;;;;;;3.88;2.20;;;;;;;;;;5074201;28;20029;-80
2022/07/18 05:49:02;;;;;;;4.90;2.10;;;;;;;;;;5072904;28;20463;-80
2022/07/18 05:51:28;;;;;;;2.90;1.88;;;;;;;;;;5078543;28;20558;-79
2022/07/18 05:53:53;;;;;;;3.30;1.70;;;;;;;;;;5082175;28;20024;-80
2022/07/18 05:56:19;;;;;;;3.30;1.70;;;;;;;;;;5082986;28;20483;-79
2022/07/18 05:58:44;;;;;;;3.97;2.03;;;;;;;;;;5063669;28;20028;-80
2022/07/18 06:01:10;;;;;;;4.00;2.25;;;;;;;;;;5060005;28;20039;-79
2022/07/18 06:03:35;;;;;;;3.80;1.80;;;;;;;;;;5063139;28;20025;-80
2022/07/18 06:06:01;;;;;;;5.55;2.42;;;;;;;;;;5082350;28;20103;-80
2022/07/18 06:08:26;;;;;;;3.95;2.03;;;;;;;;;;5080985;28;20523;-79
2022/07/18 06:10:52;;;;;;;4.20;2.17;;;;;;;;;;5082797;28;20091;-81
2022/07/18 06:13:17;;;;;;;3.10;2.13;;;;;;;;;;5080536;28;20085;-80
2022/07/18 06:15:42;;;;;;;7.93;5.93;;;;;;;;;;5077569;28;20066;-79
2022/07/18 06:18:08;;;;;;;5.97;3.03;;;;;;;;;;5082400;28;20032;-79
2022/07/18 06:20:33;;;;;;;3.92;2.33;;;;;;;;;;5084507;28;20057;-80
2022/07/18 06:22:59;;;;;;;5.45;2.17;;;;;;;;;;5081625;28;20022;-80
2022/07/18 06:25:24;;;;;;;2.72;1.80;;;;;;;;;;5078678;28;20035;-80
2022/07/18 06:27:50;;;;;;;5.32;2.03;;;;;;;;;;5072304;28;20546;-80
2022/07/18 06:30:15;;;;;;;2.80;1.58;;;;;;;;;;5076444;28;20028;-79
2022/07/18 06:32:41;;;;;;;3.55;1.80;;;;;;;;;;5093650;28;20121;-81
2022/07/18 06:35:07;;;;;;;3.38;1.70;;;;;;;;;;5091606;28;20494;-80
2022/07/18 06:37:32;;;;;;;4.55;1.98;;;;;;;;;;5092305;28;20028;-80
2022/07/18 06:39:58;;;;;;;3.72;1.60;;;;;;;;;;5089784;28;20036;-80
2022/07/18 06:42:23;;;;;;;3.95;1.83;;;;;;;;;;5056656;28;20020;-80
2022/07/18 06:44:49;;;;;;;3.88;1.77;;;;;;;;;;5071720;28;20028;-79
2022/07/18 06:47:14;;;;;;;3.58;2.00;;;;;;;;;;5074789;28;20016;-80
2022/07/18 06:49:40;;;;;;;4.15;1.60;;;;;;;;;;5090822;28;20483;-79
2022/07/18 06:52:05;;;;;;;2.63;1.35;;;;;;;;;;5093065;28;20542;-83
2022/07/18 06:54:33;;;;;;;2.22;1.40;;;;;;;;;;5093383;28;20024;-81
2022/07/18 06:56:59;;;;;;;2.97;1.45;;;;;;;;;;5096830;28;20024;-83
2022/07/18 06:59:24;;;;;;;2.67;1.50;;;;;;;;;;5092034;28;20115;-81
2022/07/18 07:01:49;;;;;;;4.20;1.30;;;;;;;;;;5075763;28;20058;-81
2022/07/18 07:04:15;;;;;;;4.43;1.50;;;;;;;;;;5074634;28;20039;-80
2022/07/18 07:06:40;;;;;;;3.72;1.30;;;;;;;;;;5083523;28;20043;-79
2022/07/18 07:09:06;;;;;;;3.85;1.70;;;;;;;;;;5075750;28;20040;-79
2022/07/18 07:11:31;;;;;;;3.05;1.75;;;;;;;;;;5076002;28;20064;-81
2022/07/18 07:13:57;;;;;;;4.95;1.45;;;;;;;;;;5064456;28;20047;-79
2022/07/18 07:16:22;;;;;;;2.90;1.50;;;;;;;;;;5095554;28;20075;-80
2022/07/18 07:18:48;;;;;;;2.65;1.30;;;;;;;;;;5090211;28;20055;-79
2022/07/18 07:21:13;;;;;;;1.92;1.10;;;;;;;;;;5075737;28;20036;-80
2022/07/18 07:23:40;;;;;;;2.35;1.30;;;;;;;;;;5075237;28;20527;-81
2022/07/18 07:26:06;;;;;;;3.33;1.40;;;;;;;;;;5059022;28;20107;-80
2022/07/18 07:28:31;;;;;;;2.22;1.50;;;;;;;;;;5079671;28;20133;-80
2022/07/18 07:30:56;;;;;;;2.65;1.20;;;;;;;;;;5086583;28;20057;-81
2022/07/18 07:33:22;;;;;;;2.58;1.52;;;;;;;;;;5059479;28;20384;-80
2022/07/18 07:35:47;;;;;;;2.65;1.70;;;;;;;;;;5076762;28;20479;-80
2022/07/18 07:38:18;;;;;;;3.35;1.63;;;;;;;;;;5076994;28;20028;-81
2022/07/18 07:40:43;;;;;;;2.72;1.30;;;;;;;;;;5076389;28;20086;-80
2022/07/18 07:43:09;;;;;;;1.88;1.20;;;;;;;;;;5075247;28;20466;-80
2022/07/18 07:45:35;;;;;;;4.80;1.60;;;;;;;;;;5075802;28;20032;-80
2022/07/18 07:48:01;;;;;;;2.70;1.30;;;;;;;;;;5076473;28;20016;-80
2022/07/18 07:50:26;;;;;;;2.50;1.40;;;;;;;;;;5075368;28;20517;-80
2022/07/18 07:52:51;;;;;;;2.05;1.20;;;;;;;;;;5079216;28;20024;-82
2022/07/18 07:55:17;;;;;;;2.88;1.30;;;;;;;;;;5092224;28;20568;-81
2022/07/18 07:57:42;;;;;;;2.97;1.40;;;;;;;;;;5094254;28;20028;-80
2022/07/18 08:00:09;;;;;;;3.67;1.45;;;;;;;;;;5096031;28;20036;-82
2022/07/18 08:02:52;;;;;;;4.50;1.50;;;;;;;;;;5083659;28;20028;-81
2022/07/18 08:05:17;;;;;;;3.70;1.67;;;;;;;;;;5082655;28;20042;-84
2022/07/18 08:07:43;;;;;;;4.68;1.60;;;;;;;;;;5095496;28;20028;-84
2022/07/18 08:10:08;;;;;;;3.85;1.60;;;;;;;;;;5092506;28;20122;-81
2022/07/18 08:12:34;;;;;;;4.80;1.88;;;;;;;;;;5058171;28;20064;-81
2022/07/18 08:14:59;;;;;;;2.97;1.77;;;;;;;;;;5075587;28;20032;-81
2022/07/18 08:17:25;;;;;;;3.35;1.48;;;;;;;;;;5076899;28;20028;-81
2022/07/18 08:19:50;;;;;;;3.45;1.73;;;;;;;;;;5093853;28;20118;-82
2022/07/18 08:22:17;;;;;;;3.05;1.58;;;;;;;;;;5093229;28;20036;-79
2022/07/18 08:24:43;;;;;;;3.42;1.73;;;;;;;;;;5091982;28;20031;-79
2022/07/18 08:27:09;;;;;;;4.75;2.10;;;;;;;;;;5088583;28;20115;-80
2022/07/18 08:29:34;;;;;;;3.63;1.90;;;;;;;;;;5073866;28;20124;-79
2022/07/18 08:32:00;;;;;;;4.38;1.92;;;;;;;;;;5079605;28;20055;-81
2022/07/18 08:34:26;;;;;;;6.63;2.00;;;;;;;;;;5095414;28;20170;-82
2022/07/18 08:36:51;;;;;;;4.88;1.92;;;;;;;;;;5063563;28;20226;-82
2022/07/18 08:39:17;;;;;;;5.68;2.03;;;;;;;;;;5088685;28;20074;-80
2022/07/18 08:41:43;;;;;;;3.70;1.90;;;;;;;;;;5056745;28;20365;-80
2022/07/18 08:44:08;;;;;;;4.05;1.40;;;;;;;;;;5061014;28;20467;-80
2022/07/18 08:46:33;;;;;;;3.72;2.10;;;;;;;;;;5074062;28;20158;-80
2022/07/18 08:48:59;;;;;;;2.75;1.63;;;;;;;;;;5074460;28;20024;-80
2022/07/18 08:51:24;;;;;;;3.45;1.90;;;;;;;;;;5074996;28;20028;-81
2022/07/18 08:53:51;;;;;;;5.63;1.85;;;;;;;;;;5087134;28;20131;-79
2022/07/18 08:56:17;;;;;;;4.30;1.77;;;;;;;;;;5087029;28;20141;-81
2022/07/18 08:58:42;;;;;;;4.80;2.08;;;;;;;;;;5087211;28;20040;-80
2022/07/18 09:01:08;;;;;;;3.28;1.88;;;;;;;;;;5075212;28;20475;-81
2022/07/18 09:03:33;;;;;;;7.03;2.38;;;;;;;;;;5073278;28;20119;-81
2022/07/18 09:06:17;;;;;;;4.13;2.00;;;;;;;;;;5073741;28;20017;-83
2022/07/18 09:08:59;;;;;;;3.85;1.80;;;;;;;;;;5074742;28;20024;-84
2022/07/18 09:11:25;;;;;;;5.10;2.00;;;;;;;;;;5081985;28;20051;-82
2022/07/18 09:13:50;;;;;;;2.63;1.45;;;;;;;;;;5081357;28;20056;-83
2022/07/18 09:16:16;;;;;;;4.75;1.50;;;;;;;;;;5052865;28;20496;-85
2022/07/18 09:18:45;;;;;;;3.17;2.10;;;;;;;;;;5084225;28;20070;-82
2022/07/18 09:21:11;;;;;;;4.43;1.52;;;;;;;;;;5075243;28;20160;-82
2022/07/18 09:23:38;;;;;;;3.03;1.33;;;;;;;;;;5073783;28;20190;-81
2022/07/18 09:26:03;;;;;;;3.53;1.38;;;;;;;;;;5079306;28;20456;-82
2022/07/18 09:28:29;;;;;;;4.72;1.40;;;;;;;;;;5055273;28;20021;-81
2022/07/18 09:30:55;;;;;;;2.03;1.40;;;;;;;;;;5081767;28;20020;-81
2022/07/18 09:33:21;;;;;;;2.22;1.38;;;;;;;;;;5058985;28;20035;-80
2022/07/18 09:35:47;;;;;;;3.00;2.22;;;;;;;;;;5094494;28;20043;-80
2022/07/18 09:38:31;;;;;;;6.38;1.50;;;;;;;;;;5067639;28;20037;-83
2022/07/18 09:40:57;;;;;;;2.45;1.30;;;;;;;;;;5073707;28;20035;-80
2022/07/18 09:43:23;;;;;;;2.08;1.10;;;;;;;;;;5072941;28;20036;-80
2022/07/18 09:45:53;;;;;;;2.75;1.48;;;;;;;;;;5072688;28;20032;-81
2022/07/18 09:48:19;;;;;;;3.22;1.25;;;;;;;;;;5067256;28;20518;-81
2022/07/18 09:51:04;;;;;;;2.45;1.20;;;;;;;;;;5091465;28;20498;-81
2022/07/18 09:53:31;;;;;;;2.15;1.23;;;;;;;;;;5081883;28;20098;-81
2022/07/18 09:56:06;;;;;;;2.47;1.23;;;;;;;;;;5072165;28;20033;-81
2022/07/18 09:58:32;;;;;;;3.65;1.20;;;;;;;;;;5072886;28;20040;-80
2022/07/18 10:00:59;;;;;;;2.30;1.20;;;;;;;;;;5087104;28;20055;-81
2022/07/18 10:03:25;;;;;;;4.32;1.40;;;;;;;;;;5085473;28;20097;-80
2022/07/18 10:05:51;;;;;;;2.25;1.48;;;;;;;;;;5091692;28;20016;-81
2022/07/18 10:08:17;;;;;;;3.28;1.10;;;;;;;;;;5093061;28;20034;-81
2022/07/18 10:10:44;;;;;;;3.22;1.45;;;;;;;;;;5082636;28;20078;-80
2022/07/18 10:13:09;;;;;;;2.13;1.13;;;;;;;;;;5092732;28;20403;-81
2022/07/18 10:15:36;;;;;;;1.27;1.00;;;;;;;;;;5091303;28;20023;-81
2022/07/18 10:18:02;;;;;;;2.95;1.17;;;;;;;;;;5083408;28;20036;-80
2022/07/18 10:20:32;;;;;;;1.83;0.95;;;;;;;;;;5063493;28;20043;-81
2022/07/18 10:22:59;;;;;;;2.10;1.10;;;;;;;;;;5075009;28;20066;-81
2022/07/18 10:25:24;;;;;;;2.58;1.50;;;;;;;;;;5085472;28;20505;-82
2022/07/18 10:28:08;;;;;;;3.75;1.40;;;;;;;;;;5085396;28;20024;-81
2022/07/18 10:30:35;;;;;;;3.30;1.20;;;;;;;;;;5092547;28;20035;-81
2022/07/18 10:33:00;;;;;;;2.35;1.40;;;;;;;;;;5093475;28;20471;-80
2022/07/18 10:35:45;;;;;;;2.33;1.30;;;;;;;;;;5074224;28;20032;-82
2022/07/18 10:38:20;;;;;;;3.60;1.50;;;;;;;;;;5092807;28;20036;-82
2022/07/18 10:41:12;;;;;;;2.47;1.30;;;;;;;;;;5068281;28;20031;-81
2022/07/18 10:43:41;;;;;;;2.50;1.30;;;;;;;;;;5087038;28;20037;-82
2022/07/18 10:46:08;;;;;;;2.60;1.20;;;;;;;;;;5073128;28;20399;-81
2022/07/18 10:48:36;;;;;;;2.40;1.23;;;;;;;;;;5072611;28;20033;-80
2022/07/18 10:51:05;;;;;;;2.67;1.23;;;;;;;;;;5083833;28;20051;-81
2022/07/18 10:53:49;;;;;;;3.33;1.30;;;;;;;;;;5093172;28;20035;-80
2022/07/18 10:56:15;;;;;;;2.78;1.55;;;;;;;;;;5092452;28;20036;-81
2022/07/18 10:58:40;;;;;;;3.00;1.48;;;;;;;;;;5093063;28;20035;-85
2022/07/18 11:01:07;;;;;;;3.25;1.30;;;;;;;;;;5091731;28;20044;-80
2022/07/18 11:03:32;;;;;;;6.13;1.30;;;;;;;;;;5091313;28;20028;-80
2022/07/18 11:05:58;;;;;;;4.70;1.52;;;;;;;;;;5074086;28;20036;-81
2022/07/18 11:08:24;;;;;;;4.35;1.40;;;;;;;;;;5093194;28;20020;-80
2022/07/18 11:10:51;;;;;;;5.18;2.35;;;;;;;;;;5090783;28;20433;-81
2022/07/18 11:13:28;;;;;;;2.83;1.65;;;;;;;;;;5084494;28;20032;-80
2022/07/18 11:16:07;;;;;;;3.45;1.52;;;;;;;;;;5086827;28;20529;-80
2022/07/18 11:18:33;;;;;;;4.63;2.03;;;;;;;;;;5075094;28;20046;-81
2022/07/18 11:20:59;;;;;;;3.67;2.22;;;;;;;;;;5071879;28;20025;-81
2022/07/18 11:23:25;;;;;;;3.97;1.60;;;;;;;;;;5071863;28;20028;-84
2022/07/18 11:25:52;;;;;;;4.15;2.00;;;;;;;;;;5072971;28;20047;-81
2022/07/18 11:28:18;;;;;;;3.60;2.10;;;;;;;;;;5072152;28;20033;-84
2022/07/18 11:30:44;;;;;;;4.32;2.40;;;;;;;;;;5085909;28;20107;-82
2022/07/18 11:33:23;;;;;;;3.65;1.60;;;;;;;;;;5073507;28;20068;-81
2022/07/18 11:35:48;;;;;;;6.90;2.00;;;;;;;;;;5072987;28;20037;-82
2022/07/18 11:38:14;;;;;;;5.30;2.20;;;;;;;;;;5071828;28;20054;-80
2022/07/18 11:40:51;;;;;;;6.32;2.03;;;;;;;;;;5076403;28;20031;-81
2022/07/18 11:43:21;;;;;;;6.80;2.38;;;;;;;;;;5075593;28;20035;-81
2022/07/18 11:45:46;;;;;;;4.22;1.90;;;;;;;;;;5076831;28;20041;-81
2022/07/18 11:48:12;;;;;;;7.10;1.92;;;;;;;;;;5077440;28;20033;-80
2022/07/18 11:50:37;;;;;;;5.95;2.10;;;;;;;;;;5075548;28;20112;-80
2022/07/18 11:53:03;;;;;;;5.22;1.90;;;;;;;;;;5058959;28;20028;-82
2022/07/18 11:55:32;;;;;;;6.10;2.05;;;;;;;;;;5075846;28;20035;-82
2022/07/18 11:58:05;;;;;;;5.57;2.20;;;;;;;;;;5054571;28;20045;-81
2022/07/18 12:00:30;;;;;;;4.93;1.75;;;;;;;;;;5087399;28;20494;-81
2022/07/18 12:03:05;;;;;;;4.10;1.75;;;;;;;;;;5064622;28;20028;-79
2022/07/18 12:05:31;;;;;;;4.05;1.90;;;;;;;;;;5095276;28;20046;-81
2022/07/18 12:07:57;;;;;;;3.97;1.80;;;;;;;;;;5094520;28;20020;-81
2022/07/18 12:10:22;;;;;;;3.35;1.70;;;;;;;;;;5094247;28;20181;-80
2022/07/18 12:12:48;;;;;;;3.95;1.50;;;;;;;;;;5077730;28;20024;-81
2022/07/18 12:15:13;;;;;;;5.15;1.90;;;;;;;;;;5095809;28;20057;-81
2022/07/18 12:17:42;;;;;;;6.43;1.80;;;;;;;;;;5094171;28;20027;-83
2022/07/18 12:20:12;;;;;;;2.92;1.63;;;;;;;;;;5069844;28;20368;-81
2022/07/18 12:22:57;;;;;;;5.50;2.90;;;;;;;;;;5094687;28;20024;-81
2022/07/18 12:25:33;;;;;;;5.28;1.85;;;;;;;;;;5095276;28;20122;-81
2022/07/18 12:28:11;;;;;;;3.90;2.05;;;;;;;;;;5066273;28;20029;-80
2022/07/18 12:30:36;;;;;;;4.53;2.05;;;;;;;;;;5080493;28;20043;-80
2022/07/18 12:33:02;;;;;;;6.95;2.22;;;;;;;;;;5093977;28;20036;-80
2022/07/18 12:35:28;;;;;;;6.32;2.30;;;;;;;;;;5076702;28;20097;-82
2022/07/18 12:37:55;;;;;;;5.65;1.83;;;;;;;;;;5093065;28;20032;-82
2022/07/18 12:40:21;;;;;;;4.55;1.95;;;;;;;;;;5063504;28;20024;-80
2022/07/18 12:42:47;;;;;;;5.35;2.20;;;;;;;;;;5093601;28;20016;-82
2022/07/18 12:45:13;;;;;;;5.15;1.73;;;;;;;;;;5090529;28;20471;-80
2022/07/18 12:47:38;;;;;;;5.68;2.78;;;;;;;;;;5081584;28;20048;-81
2022/07/18 12:50:04;;;;;;;3.45;1.48;;;;;;;;;;5093153;28;20028;-81
2022/07/18 12:52:30;;;;;;;3.00;1.40;;;;;;;;;;5094560;28;20084;-83
2022/07/18 12:54:55;;;;;;;4.15;1.73;;;;;;;;;;5093503;28;20039;-82
2022/07/18 12:57:21;;;;;;;3.97;1.90;;;;;;;;;;5093447;28;20031;-81
2022/07/18 12:59:47;;;;;;;3.80;1.67;;;;;;;;;;5094826;28;20434;-81
2022/07/18 13:02:12;;;;;;;5.68;1.80;;;;;;;;;;5094002;28;20433;-79
2022/07/18 13:04:38;;;;;;;5.82;1.75;;;;;;;;;;5076206;28;20043;-80
2022/07/18 13:07:03;;;;;;;3.97;1.70;;;;;;;;;;5075840;28;20101;-83
2022/07/18 13:09:29;;;;;;;4.63;2.05;;;;;;;;;;5076086;28;20024;-81
2022/07/18 13:11:54;;;;;;;4.43;1.80;;;;;;;;;;5092860;28;20144;-81
2022/07/18 13:14:20;;;;;;;5.32;1.58;;;;;;;;;;5092823;28;20552;-82
2022/07/18 13:16:47;;;;;;;4.30;1.80;;;;;;;;;;5085263;28;20027;-81
2022/07/18 13:19:15;;;;;;;5.65;1.70;;;;;;;;;;5080823;28;20498;-81
2022/07/18 13:21:41;;;;;;;3.42;1.52;;;;;;;;;;5090206;28;20042;-80
2022/07/18 13:24:06;;;;;;;3.88;1.60;;;;;;;;;;5092101;28;20130;-81
2022/07/18 13:26:32;;;;;;;6.47;2.45;;;;;;;;;;5087916;28;20481;-82
2022/07/18 13:28:57;;;;;;;6.28;1.48;;;;;;;;;;5073129;28;20403;-81
2022/07/18 13:31:23;;;;;;;3.97;1.48;;;;;;;;;;5056585;28;20073;-81
2022/07/18 13:33:50;;;;;;;3.22;1.30;;;;;;;;;;5072816;28;20047;-82
2022/07/18 13:36:15;;;;;;;3.85;1.42;;;;;;;;;;5087284;28;20040;-80
2022/07/18 13:38:41;;;;;;;7.43;4.45;;;;;;;;;;5087395;28;20031;-80
2022/07/18 13:41:06;;;;;;;4.10;1.80;;;;;;;;;;5072770;28;20028;-80
2022/07/18 13:43:32;;;;;;;4.25;1.70;;;;;;;;;;5085991;28;20040;-80
2022/07/18 13:45:57;;;;;;;3.30;1.40;;;;;;;;;;5072961;28;20395;-81
2022/07/18 13:48:23;;;;;;;4.47;1.40;;;;;;;;;;5077408;28;20391;-84
2022/07/18 13:50:48;;;;;;;2.40;1.33;;;;;;;;;;5075355;28;20020;-81
2022/07/18 13:53:14;;;;;;;2.83;1.50;;;;;;;;;;5086444;28;20035;-80
2022/07/18 13:55:39;;;;;;;3.75;1.10;;;;;;;;;;5073372;28;20445;-81
2022/07/18 13:58:05;;;;;;;4.18;2.10;;;;;;;;;;5074008;28;20513;-81
2022/07/18 14:00:30;;;;;;;2.50;1.15;;;;;;;;;;5072451;28;20082;-81
2022/07/18 14:02:56;;;;;;;3.72;1.50;;;;;;;;;;5092393;28;20032;-83
2022/07/18 14:05:21;;;;;;;6.95;1.45;;;;;;;;;;5091947;28;20039;-80
2022/07/18 14:07:48;;;;;;;3.53;1.55;;;;;;;;;;5083988;28;20519;-80
2022/07/18 14:10:13;;;;;;;4.97;1.50;;;;;;;;;;5071931;28;20051;-81
2022/07/18 14:12:39;;;;;;;4.30;1.50;;;;;;;;;;5073751;28;20036;-79
2022/07/18 14:15:04;;;;;;;3.47;1.55;;;;;;;;;;5071541;28;20470;-81
2022/07/18 14:17:32;;;;;;;3.88;1.40;;;;;;;;;;5087105;28;20032;-80
2022/07/18 14:19:57;;;;;;;5.28;1.30;;;;;;;;;;5088455;28;20028;-80
2022/07/18 14:22:23;;;;;;;2.22;1.27;;;;;;;;;;5093512;28;20486;-82
2022/07/18 14:24:48;;;;;;;3.92;1.30;;;;;;;;;;5091327;28;20016;-81
2022/07/18 14:27:15;;;;;;;3.47;1.35;;;;;;;;;;5086459;28;20055;-80
2022/07/18 14:29:40;;;;;;;3.90;1.48;;;;;;;;;;5072034;28;20157;-79
2022/07/18 14:32:06;;;;;;;3.38;1.10;;;;;;;;;;5071744;28;20036;-83
2022/07/18 14:34:31;;;;;;;3.42;1.20;;;;;;;;;;5072361;28;20063;-82
2022/07/18 14:36:57;;;;;;;3.15;1.10;;;;;;;;;;5060567;28;20040;-85
2022/07/18 14:39:22;;;;;;;2.85;1.20;;;;;;;;;;5074891;28;20089;-84